Time;durP1;ratioP1;P1;durP2;ratioP2;P2;SDS_P1;SDS_P2;PMS_P1;PMS_P2;Temp;Humidity;BMP_temperature;BMP_pressure;BME280_temperature;BME280_humidity;BME280_pressure;Samples;Min_cycle;Max_cycle;Signal;HPM_P1;HPM_P2
2021/09/14 00:00:20;;;;;;;8.97;8.27;;;14.60;97.40;;;13.56;98.46;98020.25;5067379;28;20452;-77
2021/09/14 00:02:47;;;;;;;10.17;9.00;;;14.60;97.20;;;13.52;98.42;98010.13;5074987;28;20546;-79
2021/09/14 00:05:17;;;;;;;9.10;8.37;;;14.60;96.90;;;13.50;98.44;98004.91;5087778;28;20458;-78
2021/09/14 00:07:44;;;;;;;8.27;7.60;;;14.60;96.90;;;13.39;98.65;97997.53;5087096;28;20531;-78
2021/09/14 00:10:12;;;;;;;8.80;8.10;;;14.60;96.80;;;13.49;98.70;98014.13;5068097;28;20476;-81
2021/09/14 00:12:39;;;;;;;8.70;7.90;;;14.50;97.10;;;13.42;98.30;98013.34;5090317;28;20491;-80
2021/09/14 00:15:09;;;;;;;8.93;8.23;;;14.50;96.80;;;13.38;98.61;98004.03;5076361;28;20475;-78
2021/09/14 00:17:36;;;;;;;8.73;8.03;;;14.50;96.90;;;13.46;98.24;98015.41;5090942;28;20506;-79
2021/09/14 00:20:04;;;;;;;9.30;8.43;;;14.60;96.80;;;13.43;97.93;98010.44;5075333;28;20466;-79
2021/09/14 00:22:33;;;;;;;8.33;7.63;;;14.60;96.70;;;13.45;98.21;98008.31;5091707;28;20547;-78
2021/09/14 00:25:00;;;;;;;9.23;8.53;;;14.50;96.70;;;13.42;98.52;98014.19;5069651;28;20547;-79
2021/09/14 00:27:27;;;;;;;9.50;8.60;;;14.50;96.80;;;13.45;98.27;98012.94;5069735;28;20456;-80
2021/09/14 00:29:54;;;;;;;8.53;7.73;;;14.50;96.80;;;13.39;98.56;98019.25;5086989;28;20544;-78
2021/09/14 00:32:21;;;;;;;9.40;8.50;;;14.50;96.60;;;13.34;98.54;98014.53;5083734;28;20439;-80
2021/09/14 00:34:48;;;;;;;8.50;7.70;;;14.40;96.50;;;13.14;98.97;98004.00;5064450;28;20998;-78
2021/09/14 00:37:14;;;;;;;9.83;9.03;;;14.40;96.70;;;13.30;98.73;98016.91;5085359;28;20610;-79
2021/09/14 00:39:43;;;;;;;10.37;9.37;;;14.40;96.90;;;13.18;98.50;97991.63;5072965;28;20872;-78
2021/09/14 00:42:10;;;;;;;10.03;8.67;;;14.40;96.90;;;13.29;98.96;98015.25;5070925;28;20511;-79
2021/09/14 00:44:37;;;;;;;9.87;8.60;;;14.40;97.00;;;13.16;99.13;98010.03;5086776;28;20507;-79
2021/09/14 00:47:05;;;;;;;8.93;8.13;;;14.30;97.00;;;13.20;99.46;98011.19;5087460;28;20501;-78
2021/09/14 00:49:33;;;;;;;9.70;8.90;;;14.30;97.40;;;13.20;99.04;97997.63;5069334;28;20467;-79
2021/09/14 00:52:01;;;;;;;8.77;8.03;;;14.30;97.70;;;13.14;99.01;97995.88;5074123;28;20481;-79
2021/09/14 00:54:28;;;;;;;9.10;8.40;;;14.30;97.20;;;12.99;99.23;97975.44;5066321;28;20448;-79
2021/09/14 00:56:58;;;;;;;10.23;8.50;;;14.30;97.40;;;13.14;99.38;98004.00;5072568;28;21135;-78
2021/09/14 00:59:25;;;;;;;9.07;7.90;;;14.20;97.70;;;13.20;99.07;98000.34;5071415;28;20482;-79
2021/09/14 01:01:54;;;;;;;9.10;8.33;;;14.30;97.70;;;13.14;99.09;97993.97;5069171;28;20460;-79
2021/09/14 01:04:21;;;;;;;9.00;8.27;;;14.20;97.50;;;13.23;98.81;97999.06;5083588;28;20471;-78
2021/09/14 01:06:48;;;;;;;9.13;8.23;;;14.30;97.20;;;13.21;98.74;97991.16;5088544;28;20461;-80
2021/09/14 01:09:16;;;;;;;9.83;8.90;;;14.40;96.90;;;13.13;98.43;97992.31;5070518;28;20532;-80
2021/09/14 01:11:44;;;;;;;8.87;8.17;;;14.30;96.60;;;13.09;98.81;97988.44;5084444;28;20452;-79
2021/09/14 01:14:12;;;;;;;8.97;8.17;;;14.30;96.80;;;13.10;98.73;97990.06;5087235;28;21020;-78
2021/09/14 01:16:41;;;;;;;8.77;7.97;;;14.20;96.90;;;13.09;98.37;97987.59;5086313;28;20459;-79
2021/09/14 01:19:11;;;;;;;9.27;8.50;;;14.20;96.60;;;13.12;98.38;97985.25;5088595;28;20471;-78
2021/09/14 01:21:38;;;;;;;8.67;7.97;;;14.20;96.70;;;13.12;97.97;97977.09;5086815;28;20518;-79
2021/09/14 01:24:08;;;;;;;8.50;7.80;;;14.20;96.50;;;13.09;98.46;97984.88;5065177;28;20443;-78
2021/09/14 01:26:36;;;;;;;8.10;7.40;;;14.20;96.50;;;13.11;98.07;97980.03;5067461;28;20516;-79
2021/09/14 01:29:08;;;;;;;8.03;7.27;;;14.20;96.30;;;13.15;97.94;97989.38;5075370;28;20455;-79
2021/09/14 01:31:36;;;;;;;8.53;7.83;;;14.20;96.10;;;13.14;97.88;97996.69;5085022;28;20461;-79
2021/09/14 01:34:04;;;;;;;7.63;7.00;;;14.20;96.20;;;13.10;97.76;97991.94;5090269;28;20465;-79
2021/09/14 01:36:33;;;;;;;8.60;8.00;;;14.20;95.90;;;13.10;97.81;97991.94;5071731;28;20449;-81
2021/09/14 01:39:00;;;;;;;8.10;7.50;;;14.20;95.80;;;13.07;97.66;97985.13;5067020;28;20465;-78
2021/09/14 01:41:28;;;;;;;8.27;7.57;;;14.20;95.90;;;13.06;97.73;97978.03;5069746;28;20481;-80
2021/09/14 01:43:56;;;;;;;8.33;7.73;;;14.20;95.90;;;13.03;97.57;97975.78;5084946;28;20516;-78
2021/09/14 01:46:23;;;;;;;8.00;7.40;;;14.20;95.70;;;12.96;97.81;97970.44;5068138;28;20456;-80
2021/09/14 01:48:50;;;;;;;8.30;7.60;;;14.10;95.70;;;12.99;97.63;97975.44;5068481;28;20532;-79
2021/09/14 01:51:17;;;;;;;8.17;7.40;;;14.10;95.70;;;13.00;97.50;97968.94;5075717;28;20486;-78
2021/09/14 01:53:45;;;;;;;8.23;7.57;;;14.10;95.50;;;12.87;97.59;97964.53;5051783;28;20459;-78
2021/09/14 01:56:12;;;;;;;8.43;7.63;;;14.00;95.60;;;12.96;97.47;97981.31;5061355;28;20458;-79
2021/09/14 01:58:40;;;;;;;7.90;7.30;;;14.00;95.60;;;12.95;97.60;97976.13;5069791;28;20902;-79
2021/09/14 02:01:12;;;;;;;8.67;7.87;;;14.00;95.70;;;12.91;97.70;97975.75;5062189;28;20457;-79
2021/09/14 02:03:47;;;;;;;8.80;7.97;;;14.00;95.70;;;12.81;97.57;97962.75;5090095;28;20463;-78
2021/09/14 02:09:05;;;;;;;8.53;7.73;;;14.00;95.70;;;12.93;97.09;97962.78;5067432;28;21031;-79
2021/09/14 02:42:32;;;;;;;7.80;7.10;;;14.10;94.90;;;12.87;96.97;97964.53;5068476;28;20448;-79
2021/09/14 02:56:33;;;;;;;9.90;8.00;;;13.90;95.50;;;12.73;97.29;97955.78;5033306;28;20463;-78
2021/09/14 02:58:59;;;;;;;9.27;8.47;;;13.90;95.20;;;12.70;97.54;97964.38;5071084;28;20550;-78
2021/09/14 03:01:26;;;;;;;8.73;8.00;;;13.80;95.40;;;12.66;97.56;97946.94;5060279;28;20555;-78
2021/09/14 03:03:56;;;;;;;8.87;8.13;;;13.80;95.50;;;12.46;98.06;97930.97;5066733;28;20546;-78
2021/09/14 03:06:24;;;;;;;8.73;7.97;;;13.80;95.90;;;12.60;98.16;97955.97;5082422;28;20459;-78
2021/09/14 03:08:52;;;;;;;8.83;8.17;;;13.70;95.90;;;12.53;98.26;97952.53;5082440;28;20476;-79
2021/09/14 03:11:20;;;;;;;8.57;7.50;;;13.70;96.20;;;12.53;98.34;97952.53;5089030;28;20503;-78
2021/09/14 03:13:47;;;;;;;8.90;7.80;;;13.70;96.20;;;12.54;98.46;97954.19;5087411;28;20507;-78
2021/09/14 03:16:15;;;;;;;9.10;8.20;;;13.70;96.20;;;12.50;98.52;97953.81;5088837;28;20530;-78
2021/09/14 03:18:43;;;;;;;9.47;8.23;;;13.60;96.50;;;12.61;98.08;97965.75;5070412;28;20530;-79
2021/09/14 03:21:14;;;;;;;9.00;8.40;;;13.70;96.60;;;12.47;98.63;97946.97;5071853;28;20479;-78
2021/09/14 03:23:41;;;;;;;9.40;8.50;;;13.60;96.20;;;12.46;99.03;97958.88;5094804;28;20479;-79
2021/09/14 03:26:08;;;;;;;9.00;8.20;;;13.60;96.80;;;12.36;99.09;97946.94;5073772;28;20559;-78
2021/09/14 03:28:35;;;;;;;9.63;8.37;;;13.60;97.00;;;12.44;99.00;97943.91;5076172;28;20444;-79
2021/09/14 03:31:02;;;;;;;9.67;8.83;;;13.60;96.90;;;12.46;99.02;97947.22;5073884;28;20490;-78
2021/09/14 03:33:29;;;;;;;9.47;8.67;;;13.60;97.10;;;12.46;99.04;97947.22;5073158;28;20518;-78
2021/09/14 03:35:56;;;;;;;9.50;8.60;;;13.60;97.10;;;12.37;98.78;97937.75;5075933;28;20451;-79
2021/09/14 03:38:25;;;;;;;8.80;8.10;;;13.50;96.70;;;12.34;99.19;97947.16;5074783;28;20563;-81
2021/09/14 03:40:52;;;;;;;9.87;8.87;;;13.50;97.10;;;12.38;99.03;97944.81;5077037;28;20516;-79
2021/09/14 03:43:19;;;;;;;9.97;9.17;;;13.50;97.40;;;12.32;99.40;97933.00;5094673;28;20461;-79
2021/09/14 03:45:47;;;;;;;9.17;8.47;;;13.50;97.20;;;12.38;99.14;97933.97;5078368;28;20535;-79
2021/09/14 03:48:15;;;;;;;8.33;7.73;;;13.50;97.30;;;12.24;99.86;97939.56;5087967;28;20973;-78
2021/09/14 03:50:43;;;;;;;9.33;8.50;;;13.40;97.40;;;12.21;99.98;97944.59;5084888;28;20449;-79
2021/09/14 03:53:10;;;;;;;9.50;8.50;;;13.40;97.70;;;12.19;100.00;97942.94;5084331;28;20528;-79
2021/09/14 03:55:38;;;;;;;9.10;8.20;;;13.40;98.90;;;12.18;100.00;97941.28;5090823;28;20471;-79
2021/09/14 03:58:05;;;;;;;10.80;8.53;;;13.40;99.00;;;12.02;100.00;97915.69;5087509;28;20541;-79
2021/09/14 04:00:32;;;;;;;8.33;7.70;;;13.40;99.00;;;12.19;99.98;97937.53;5086909;28;20527;-79
2021/09/14 04:03:02;;;;;;;9.90;9.10;;;13.40;98.80;;;12.35;100.00;97937.97;5083313;28;21291;-78
2021/09/14 04:05:35;;;;;;;9.10;8.43;;;13.40;98.30;;;12.31;100.00;97934.06;5068782;28;20496;-78
2021/09/14 04:10:51;;;;;;;9.70;8.83;;;13.40;98.20;;;12.20;100.00;97935.66;5067949;28;20470;-77
2021/09/14 04:13:18;;;;;;;8.80;8.10;;;13.40;98.70;;;12.37;100.00;97926.91;5084892;28;20547;-79
2021/09/14 04:15:45;;;;;;;10.53;9.53;;;13.40;99.20;;;12.36;99.63;97926.09;5080942;28;20512;-78
2021/09/14 04:18:12;;;;;;;9.57;8.73;;;13.50;98.70;;;12.32;99.98;97924.88;5085752;28;20479;-79
2021/09/14 04:20:39;;;;;;;9.83;9.03;;;13.40;98.40;;;12.26;100.00;97931.22;5070329;28;21061;-79
2021/09/14 04:23:06;;;;;;;9.70;8.90;;;13.40;98.70;;;12.33;100.00;97937.38;5053549;28;21129;-79
2021/09/14 04:25:33;;;;;;;10.83;9.87;;;13.40;98.80;;;12.20;100.00;97930.25;5077494;28;20501;-79
2021/09/14 04:28:01;;;;;;;10.27;9.03;;;13.40;98.50;;;12.14;100.00;97915.72;5096799;28;20544;-79
2021/09/14 04:30:29;;;;;;;11.10;10.23;;;13.40;99.20;;;12.29;99.87;97930.75;5069268;28;20868;-78
2021/09/14 04:32:55;;;;;;;10.70;9.63;;;13.50;99.00;;;12.26;100.00;97945.56;5091682;28;20539;-79
2021/09/14 04:35:23;;;;;;;10.30;9.40;;;13.40;98.50;;;12.23;100.00;97954.16;5069964;28;20472;-79
2021/09/14 04:37:50;;;;;;;10.87;9.80;;;13.40;98.80;;;12.15;100.00;97947.19;5084214;28;20547;-79
2021/09/14 04:40:17;;;;;;;10.97;9.97;;;13.40;98.50;;;12.15;100.00;97958.00;5075772;28;20827;-79
2021/09/14 04:42:44;;;;;;;10.57;9.67;;;13.30;99.00;;;12.13;100.00;97953.88;5087713;28;20976;-81
2021/09/14 04:45:13;;;;;;;10.90;9.97;;;13.30;99.90;;;12.11;100.00;97955.97;5074679;28;20447;-79
2021/09/14 04:47:40;;;;;;;10.47;9.53;;;13.30;99.90;;;12.08;100.00;97956.44;5089728;28;20520;-78
2021/09/14 04:50:08;;;;;;;10.33;9.33;;;13.30;99.70;;;12.08;100.00;97959.16;5069394;28;20497;-78
2021/09/14 04:52:35;;;;;;;11.10;9.73;;;13.20;99.80;;;12.05;100.00;97955.00;5090599;28;20546;-80
2021/09/14 04:55:02;;;;;;;11.30;10.20;;;13.20;99.90;;;12.17;100.00;97950.47;5089050;28;22501;-79
2021/09/14 04:57:29;;;;;;;11.67;10.47;;;13.30;99.90;;;12.18;100.00;97954.84;5069604;28;20856;-81
2021/09/14 04:59:56;;;;;;;12.00;9.50;;;13.30;99.90;;;12.12;100.00;97947.63;5069252;28;20508;-79
2021/09/14 05:02:24;;;;;;;10.80;9.90;;;13.30;99.90;;;12.22;100.00;97955.22;5069804;28;20873;-79
2021/09/14 05:04:52;;;;;;;10.50;9.47;;;13.40;99.90;;;12.34;100.00;97957.97;5094041;28;20458;-78
2021/09/14 05:07:19;;;;;;;13.27;10.20;;;13.40;99.30;;;12.31;99.85;97956.56;5057058;28;20444;-79
2021/09/14 05:09:46;;;;;;;11.43;10.33;;;13.40;98.90;;;12.36;100.00;97957.75;5083682;28;20477;-81
2021/09/14 05:12:12;;;;;;;11.30;10.10;;;13.40;98.60;;;12.40;99.46;97959.78;5087170;28;20496;-79
2021/09/14 05:14:40;;;;;;;11.10;10.10;;;13.50;98.30;;;12.36;99.69;97949.63;5087436;28;21046;-77
2021/09/14 05:17:07;;;;;;;10.40;9.33;;;13.50;98.10;;;12.58;99.17;97958.91;5075501;28;20555;-76
2021/09/14 05:19:37;;;;;;;10.70;9.73;;;13.60;98.20;;;12.85;98.66;97960.44;5065855;28;20526;-76
2021/09/14 05:22:05;;;;;;;10.53;9.50;;;13.80;98.20;;;12.93;98.08;97957.38;5086678;28;20470;-79
2021/09/14 05:24:33;;;;;;;9.50;8.60;;;13.90;97.00;;;13.04;95.87;97948.44;5090876;28;20456;-79
2021/09/14 05:27:01;;;;;;;10.00;9.10;;;14.00;94.90;;;13.18;95.71;97953.66;5093331;28;20490;-77
2021/09/14 05:29:29;;;;;;;8.40;7.70;;;14.10;94.70;;;13.34;94.73;97949.41;5084020;28;20452;-78
2021/09/14 05:31:57;;;;;;;10.10;9.20;;;14.30;94.20;;;13.48;93.27;97946.50;5067630;28;20468;-79
2021/09/14 05:34:25;;;;;;;9.57;8.67;;;14.40;92.80;;;13.40;93.12;97939.50;5071121;28;20531;-80
2021/09/14 05:36:54;;;;;;;10.57;9.47;;;14.40;92.50;;;13.46;92.78;97947.56;5091211;28;20457;-80
2021/09/14 05:39:25;;;;;;;9.20;8.30;;;14.50;92.10;;;13.64;92.14;97950.38;5062766;28;20811;-82
2021/09/14 05:41:52;;;;;;;9.10;8.20;;;14.50;91.90;;;13.59;92.33;97949.22;5074633;28;20447;-81
2021/09/14 05:44:20;;;;;;;9.20;8.40;;;14.60;91.70;;;13.75;91.23;97941.41;5079934;28;20462;-81
2021/09/14 05:46:47;;;;;;;8.70;7.90;;;14.70;91.40;;;13.98;90.50;97951.41;5082433;28;20464;-80
2021/09/14 05:49:14;;;;;;;9.80;8.80;;;14.80;90.90;;;14.08;88.86;97922.78;5081739;28;20478;-81
2021/09/14 05:51:41;;;;;;;9.17;8.30;;;15.00;90.40;;;14.36;88.09;97959.22;5095692;28;20463;-83
2021/09/14 05:54:10;;;;;;;9.03;8.33;;;15.20;90.00;;;14.58;87.15;97943.06;5076728;28;20523;-80
2021/09/14 05:56:37;;;;;;;8.63;7.83;;;15.40;89.30;;;14.52;86.43;97923.09;5071928;28;20483;-80
2021/09/14 05:59:04;;;;;;;8.53;7.87;;;15.50;87.80;;;14.65;86.17;97946.47;5094360;28;20463;-83
2021/09/14 06:01:32;;;;;;;10.77;7.33;;;15.60;87.30;;;14.56;86.52;97935.16;5074331;28;20484;-80
2021/09/14 06:03:59;;;;;;;8.80;8.10;;;15.60;87.20;;;14.68;86.23;97948.69;5074081;28;20482;-80
2021/09/14 06:06:26;;;;;;;8.10;7.40;;;15.60;87.20;;;14.80;85.64;97945.94;5080004;28;20459;-80
2021/09/14 06:08:53;;;;;;;8.17;7.40;;;15.70;86.80;;;14.81;85.84;97952.22;5081672;28;20468;-80
2021/09/14 06:11:21;;;;;;;10.97;8.20;;;15.70;86.80;;;14.82;86.34;97956.59;5090665;28;20444;-80
2021/09/14 06:13:48;;;;;;;9.00;8.17;;;15.80;86.90;;;14.73;85.27;97918.91;5076399;28;20513;-80
2021/09/14 06:16:16;;;;;;;8.83;7.97;;;15.80;86.20;;;15.02;84.70;97950.69;5090652;28;20829;-79
2021/09/14 06:18:43;;;;;;;8.60;7.90;;;15.90;85.80;;;15.12;84.90;97955.47;5099144;28;20456;-84
2021/09/14 06:21:13;;;;;;;8.27;7.53;;;16.00;85.90;;;15.15;84.03;97947.59;5063903;28;20471;-81
2021/09/14 06:23:41;;;;;;;8.07;7.27;;;16.10;85.30;;;15.41;83.07;97964.34;5076219;28;20534;-83
2021/09/14 06:26:09;;;;;;;9.40;7.63;;;16.20;84.60;;;15.42;82.43;97940.69;5078394;28;20525;-81
2021/09/14 06:28:41;;;;;;;8.93;8.03;;;16.40;84.30;;;15.62;81.83;97952.97;5084370;28;20593;-80
2021/09/14 06:31:09;;;;;;;7.43;6.83;;;16.50;83.70;;;15.77;81.06;97950.44;5076526;28;20466;-81
2021/09/14 06:33:37;;;;;;;8.13;7.40;;;16.60;83.30;;;15.80;80.83;97936.31;5070726;28;20444;-81
2021/09/14 06:36:05;;;;;;;7.43;6.83;;;16.70;82.70;;;15.86;80.56;97946.22;5075077;28;20452;-80
2021/09/14 06:38:34;;;;;;;7.67;7.03;;;16.80;82.40;;;15.99;80.41;97949.66;5095005;28;20459;-80
2021/09/14 06:41:01;;;;;;;11.17;7.50;;;16.80;82.30;;;16.02;80.48;97949.19;5091347;28;20499;-80
2021/09/14 06:43:28;;;;;;;8.33;7.30;;;16.80;82.10;;;16.03;80.50;97950.84;5056326;28;20513;-79
2021/09/14 06:45:57;;;;;;;8.80;7.63;;;16.90;82.20;;;15.97;81.14;97939.03;5090717;28;20448;-77
2021/09/14 06:48:24;;;;;;;6.93;6.33;;;16.90;82.00;;;16.01;80.49;97942.09;5066365;28;20464;-79
2021/09/14 06:50:51;;;;;;;8.20;7.40;;;17.00;82.10;;;16.23;79.85;97944.81;5075017;28;20881;-80
2021/09/14 06:53:18;;;;;;;9.43;6.50;;;17.10;81.50;;;16.24;79.47;97932.00;5093852;28;20456;-80
2021/09/14 06:55:47;;;;;;;8.13;6.90;;;17.20;81.20;;;16.37;79.37;97936.22;5094513;28;20472;-79
2021/09/14 06:58:17;;;;;;;6.67;6.03;;;17.20;81.10;;;16.49;78.56;97934.19;5090108;28;20456;-81
2021/09/14 07:00:44;;;;;;;7.90;7.17;;;17.30;80.70;;;16.51;79.03;97929.28;5077535;28;20479;-83
2021/09/14 07:03:15;;;;;;;7.00;6.40;;;17.40;80.60;;;16.74;77.98;97938.25;5078638;28;20547;-82
2021/09/14 07:05:46;;;;;;;6.40;5.90;;;17.50;80.10;;;16.76;77.77;97935.28;5079379;28;20440;-82
2021/09/14 07:08:15;;;;;;;7.60;6.80;;;17.60;79.70;;;16.89;77.32;97936.75;5074306;28;20540;-84
2021/09/14 07:10:47;;;;;;;8.30;7.60;;;17.70;79.60;;;17.06;77.49;97947.56;5102163;28;20464;-81
2021/09/14 07:13:14;;;;;;;6.67;6.17;;;17.90;79.60;;;17.25;76.50;97942.56;5080384;28;20495;-82
2021/09/14 07:15:42;;;;;;;7.50;6.80;;;18.10;79.20;;;17.28;75.99;97942.84;5077200;28;20468;-81
2021/09/14 07:18:10;;;;;;;6.90;6.20;;;18.10;78.40;;;17.53;75.58;97949.59;5065089;28;20911;-81
2021/09/14 07:20:43;;;;;;;6.47;5.87;;;18.30;78.40;;;17.54;75.21;97934.03;5077613;28;20545;-87
2021/09/14 07:23:13;;;;;;;5.90;5.30;;;18.40;77.80;;;17.70;74.75;97927.56;5072794;28;20490;-86
2021/09/14 07:25:43;;;;;;;6.60;6.00;;;18.60;77.60;;;18.05;73.22;97938.19;5062023;28;20452;-85
2021/09/14 07:28:19;;;;;;;7.00;5.70;;;18.80;76.70;;;18.37;72.70;97945.41;5059123;28;20789;-85
2021/09/14 07:30:47;;;;;;;6.50;5.73;;;19.10;76.10;;;18.55;71.71;97941.34;5073169;28;20487;-88
2021/09/14 07:33:16;;;;;;;6.90;5.80;;;19.30;75.10;;;18.71;71.21;97935.91;5076337;28;20472;-86
2021/09/14 07:35:49;;;;;;;10.33;6.33;;;19.40;74.80;;;18.81;70.93;97938.66;5095963;28;20452;-88
2021/09/14 07:38:18;;;;;;;6.07;5.10;;;19.50;74.30;;;18.82;70.44;97934.84;5056382;28;20471;-87
2021/09/14 07:40:56;;;;;;;6.37;5.80;;;19.70;74.10;;;19.06;70.47;97937.09;5070354;28;20495;-86
2021/09/14 07:43:25;;;;;;;6.80;5.40;;;19.80;73.80;;;19.21;69.34;97923.41;5093219;28;20570;-87
2021/09/14 07:45:53;;;;;;;5.60;5.13;;;20.00;73.00;;;19.40;68.93;97944.75;5055902;28;20496;-87
2021/09/14 07:48:21;;;;;;;6.33;5.73;;;20.20;72.70;;;19.58;68.74;97928.81;5080549;28;20473;-87
2021/09/14 07:50:51;;;;;;;6.13;5.03;;;20.30;72.60;;;19.84;68.11;97948.78;5056668;28;20467;-87
2021/09/14 07:53:24;;;;;;;6.63;6.03;;;20.50;72.20;;;20.05;67.67;97941.34;5059028;28;20455;-86
2021/09/14 07:55:53;;;;;;;8.67;5.27;;;20.70;71.80;;;20.26;65.25;97927.56;5057727;28;20556;-88
2021/09/14 07:58:21;;;;;;;5.23;4.87;;;21.00;70.40;;;20.61;64.50;97944.94;5046950;28;20518;-86
2021/09/14 08:00:48;;;;;;;5.50;5.00;;;21.30;69.90;;;20.95;63.85;97955.16;5077110;28;20476;-87
2021/09/14 08:03:17;;;;;;;5.40;5.00;;;21.50;69.20;;;21.18;62.58;97946.50;5100974;28;20451;-85
2021/09/14 08:05:52;;;;;;;5.10;4.73;;;21.80;68.10;;;21.16;61.28;97949.53;5094522;28;20803;-85
2021/09/14 08:08:21;;;;;;;6.23;4.77;;;21.90;66.70;;;21.19;61.89;97932.47;5073893;28;20449;-86
2021/09/14 08:10:49;;;;;;;5.97;4.60;;;22.00;66.70;;;21.46;59.91;97941.31;5055643;28;20453;-87
2021/09/14 08:13:16;;;;;;;4.90;4.50;;;22.20;65.60;;;21.23;60.30;97941.78;5075792;28;20544;-88
2021/09/14 08:15:43;;;;;;;5.07;4.67;;;22.20;65.10;;;21.34;60.73;97949.94;5059495;28;20493;-86
2021/09/14 08:18:10;;;;;;;5.53;4.87;;;22.20;65.10;;;21.57;60.13;97948.38;5075707;28;20467;-86
2021/09/14 08:20:38;;;;;;;8.97;5.00;;;22.30;65.10;;;21.50;59.33;97936.88;5092769;28;20549;-86
2021/09/14 08:23:08;;;;;;;5.47;4.90;;;22.40;64.70;;;21.60;59.20;97933.19;5082313;28;20467;-86
2021/09/14 08:25:35;;;;;;;5.50;5.00;;;22.40;64.30;;;21.63;58.94;97951.88;5079441;28;20448;-86
2021/09/14 08:28:04;;;;;;;5.10;4.60;;;22.40;63.80;;;21.47;59.13;97940.22;5078802;28;20450;-85
2021/09/14 08:30:31;;;;;;;4.90;4.40;;;22.40;63.60;;;21.50;57.95;97940.47;5077475;28;20464;-86
2021/09/14 08:33:06;;;;;;;5.20;4.53;;;22.40;62.90;;;21.63;57.47;97949.13;5062229;28;20865;-86
2021/09/14 08:35:35;;;;;;;5.27;4.10;;;22.40;62.40;;;21.57;57.63;97939.28;5092569;28;20519;-87
2021/09/14 08:38:04;;;;;;;4.97;4.43;;;22.50;62.20;;;21.76;57.59;97953.97;5098404;28;20452;-87
2021/09/14 08:40:34;;;;;;;5.50;4.30;;;22.50;62.40;;;21.73;57.80;97949.03;5087376;28;20605;-84
2021/09/14 08:43:02;;;;;;;6.73;5.10;;;22.60;62.30;;;21.94;56.77;97946.91;5087773;28;20456;-86
2021/09/14 08:45:31;;;;;;;4.70;4.30;;;22.70;62.10;;;22.03;56.87;97938.00;5083073;28;20925;-86
2021/09/14 08:47:58;;;;;;;6.80;4.47;;;22.80;61.90;;;22.28;56.40;97956.16;5076486;28;20475;-87
2021/09/14 08:50:27;;;;;;;4.73;4.20;;;22.90;62.00;;;22.24;56.25;97944.09;5061543;28;20553;-86
2021/09/14 08:52:54;;;;;;;4.50;4.20;;;23.10;61.60;;;22.42;55.92;97945.22;5095919;28;20458;-85
2021/09/14 08:55:22;;;;;;;6.87;4.63;;;23.20;61.50;;;22.27;56.59;97940.75;5074930;28;20497;-86
2021/09/14 08:57:57;;;;;;;5.80;5.40;;;23.10;61.80;;;22.28;57.03;97934.13;5079463;28;20451;-85
2021/09/14 09:00:33;;;;;;;5.10;4.70;;;23.20;61.80;;;22.31;57.07;97939.03;5082533;28;20468;-85
2021/09/14 09:03:02;;;;;;;6.03;5.07;;;23.20;61.80;;;22.51;56.70;97950.91;5100778;28;20450;-84
2021/09/14 09:05:35;;;;;;;5.83;4.70;;;23.30;61.80;;;22.56;56.42;97942.59;5066275;28;20459;-84
2021/09/14 09:08:16;;;;;;;5.37;4.97;;;23.30;61.70;;;22.44;56.86;97947.69;5095579;28;20451;-84
2021/09/14 09:11:08;;;;;;;5.00;4.60;;;23.30;61.60;;;22.45;57.04;97943.81;5097119;28;20448;-84
2021/09/14 09:13:51;;;;;;;6.50;5.40;;;23.30;61.70;;;22.49;57.08;97944.88;5092311;28;20490;-84
2021/09/14 09:16:20;;;;;;;5.80;5.40;;;23.30;61.60;;;22.67;56.71;97947.94;5090615;28;20544;-86
2021/09/14 09:18:50;;;;;;;5.00;4.60;;;23.40;61.80;;;22.75;56.29;97942.63;5093935;28;20573;-85
2021/09/14 09:21:19;;;;;;;6.20;4.60;;;23.60;61.80;;;23.02;55.72;97940.28;5076711;28;20503;-86
2021/09/14 09:23:57;;;;;;;6.27;5.40;;;23.70;61.50;;;23.13;55.49;97936.25;5074015;28;20449;-85
2021/09/14 09:26:33;;;;;;;5.70;5.30;;;23.80;61.30;;;23.36;55.15;97938.41;5077672;28;20457;-84
2021/09/14 09:29:18;;;;;;;5.23;4.83;;;24.00;61.40;;;23.51;54.46;97931.81;5081904;28;20468;-85
2021/09/14 09:31:52;;;;;;;6.30;5.10;;;24.20;61.20;;;23.51;54.43;97923.53;5093518;28;20455;-86
2021/09/14 09:34:29;;;;;;;5.80;5.40;;;24.30;61.00;;;23.40;54.52;97928.41;5081286;28;20448;-86
2021/09/14 09:37:04;;;;;;;5.00;4.60;;;24.30;60.80;;;23.63;54.64;97930.19;5075248;28;21042;-84
2021/09/14 09:39:47;;;;;;;7.20;6.50;;;24.40;61.20;;;23.74;54.13;97928.06;5078448;28;20449;-83
2021/09/14 09:42:16;;;;;;;6.17;5.67;;;24.40;61.00;;;23.92;53.89;97928.28;5096185;28;20483;-85
2021/09/14 09:45:00;;;;;;;5.37;4.97;;;24.50;60.80;;;23.99;53.77;97925.94;5075896;28;20456;-84
2021/09/14 09:47:29;;;;;;;5.33;4.93;;;24.60;60.60;;;23.91;53.70;97912.88;5089650;28;20804;-85
2021/09/14 09:50:00;;;;;;;5.33;4.93;;;24.60;60.50;;;24.04;53.88;97919.53;5057307;28;20461;-84
2021/09/14 09:52:29;;;;;;;5.87;5.47;;;24.70;60.60;;;24.04;53.42;97919.53;5077290;28;20464;-84
2021/09/14 09:54:58;;;;;;;5.60;5.20;;;24.80;60.50;;;23.96;53.52;97914.69;5102269;28;20459;-82
2021/09/14 09:57:27;;;;;;;7.37;5.40;;;24.80;60.10;;;24.18;53.88;97919.50;5098400;28;20459;-84
2021/09/14 09:59:56;;;;;;;5.67;5.17;;;24.80;60.60;;;24.17;53.11;97893.03;5099445;28;20470;-84
2021/09/14 10:02:29;;;;;;;7.73;5.90;;;24.90;60.30;;;24.13;53.44;97889.25;5078351;28;20539;-82
2021/09/14 10:05:02;;;;;;;5.63;5.13;;;25.00;60.50;;;24.26;53.21;97902.22;5090901;28;20545;-81
2021/09/14 10:07:32;;;;;;;6.10;5.60;;;25.00;60.20;;;24.26;53.07;97904.16;5078200;28;20459;-82
2021/09/14 10:10:07;;;;;;;6.27;5.67;;;25.00;60.20;;;24.48;52.32;97900.66;5076542;28;20448;-82
2021/09/14 10:12:35;;;;;;;5.80;5.30;;;25.10;59.90;;;24.44;52.43;97910.69;5075743;28;20462;-83
2021/09/14 10:15:07;;;;;;;6.83;5.40;;;25.20;59.80;;;24.38;52.33;97898.13;5076657;28;20475;-82
2021/09/14 10:17:49;;;;;;;8.83;5.30;;;25.20;59.70;;;24.65;51.99;97900.00;5093157;28;20463;-81
2021/09/14 10:20:21;;;;;;;5.80;5.30;;;25.30;59.60;;;24.65;51.36;97910.25;5090871;28;20690;-80
2021/09/14 10:23:00;;;;;;;5.67;5.23;;;25.30;59.30;;;24.64;51.52;97908.59;5074045;28;20517;-80
2021/09/14 10:25:27;;;;;;;5.20;4.80;;;25.40;59.20;;;24.65;51.74;97901.97;5070177;28;20874;-80
2021/09/14 10:28:08;;;;;;;6.40;5.90;;;25.40;59.20;;;24.77;51.08;97902.22;5088606;28;20517;-80
2021/09/14 10:30:38;;;;;;;5.40;5.00;;;25.50;58.90;;;24.60;51.17;97900.94;5093291;28;20467;-82
2021/09/14 10:33:06;;;;;;;5.60;5.10;;;25.40;58.70;;;24.73;51.48;97891.00;5093594;28;20479;-81
2021/09/14 10:35:39;;;;;;;6.40;5.80;;;25.50;59.00;;;24.88;51.26;97887.06;5091816;28;20460;-80
2021/09/14 10:38:14;;;;;;;5.57;5.17;;;25.60;59.10;;;25.02;50.82;97870.44;5092480;28;20498;-81
2021/09/14 10:40:44;;;;;;;5.50;5.10;;;25.70;59.10;;;25.08;50.03;97887.69;5074092;28;20469;-81
2021/09/14 10:43:25;;;;;;;5.80;5.33;;;25.80;58.30;;;24.99;49.84;97873.00;5073194;28;20505;-81
2021/09/14 10:46:00;;;;;;;7.53;5.40;;;25.80;58.00;;;25.34;48.92;97884.28;5071320;28;20452;-82
2021/09/14 10:48:32;;;;;;;5.40;5.00;;;26.00;57.80;;;25.25;48.97;97886.97;5088957;28;20452;-80
2021/09/14 10:51:11;;;;;;;7.60;5.30;;;26.00;57.60;;;25.30;49.26;97897.09;5091029;28;20460;-79
2021/09/14 10:53:39;;;;;;;5.90;5.50;;;26.00;57.70;;;25.18;49.71;97881.91;5092957;28;20455;-80
2021/09/14 10:56:11;;;;;;;7.27;5.73;;;26.00;57.80;;;25.34;49.45;97889.78;5062983;28;20806;-81
2021/09/14 10:58:44;;;;;;;5.20;4.90;;;26.10;57.70;;;25.48;48.82;97873.16;5094959;28;20448;-80
2021/09/14 11:01:21;;;;;;;6.53;6.03;;;26.10;57.60;;;25.36;48.84;97873.72;5091247;28;20471;-81
2021/09/14 11:03:51;;;;;;;5.77;5.37;;;26.20;57.40;;;25.59;48.56;97887.53;5089817;28;20505;-81
2021/09/14 11:06:19;;;;;;;5.50;5.10;;;26.30;57.50;;;25.83;47.95;97886.31;5060428;28;20485;-80
2021/09/14 11:09:07;;;;;;;6.00;5.50;;;26.40;57.30;;;25.82;47.92;97884.69;5094421;28;20443;-81
2021/09/14 11:11:35;;;;;;;5.37;5.07;;;26.50;57.20;;;25.91;47.46;97874.47;5092302;28;20451;-82
2021/09/14 11:14:02;;;;;;;5.70;5.20;;;26.60;57.10;;;26.23;47.14;97883.53;5083615;28;20532;-81